createdAt,value
2018-03-03T00:02:27.825Z,6.37
2018-03-03T00:04:57.290Z,6.24
2018-03-03T00:07:26.079Z,5.83
2018-03-03T00:09:54.648Z,5.82
2018-03-03T00:12:23.343Z,4.93
2018-03-03T00:14:52.234Z,5.40
2018-03-03T00:17:21.021Z,5.63
2018-03-03T00:19:49.705Z,5.72
2018-03-03T00:25:21.533Z,5.60
2018-03-03T00:27:51.090Z,5.54
2018-03-03T00:30:19.776Z,5.51
2018-03-03T00:32:48.415Z,6.20
2018-03-03T00:35:18.485Z,6.27
2018-03-03T00:37:47.121Z,4.80
2018-03-03T00:40:16.570Z,5.13
2018-03-03T00:42:45.563Z,4.90
2018-03-03T00:45:14.204Z,5.66
2018-03-03T00:47:42.935Z,4.59
2018-03-03T00:50:12.025Z,5.33
2018-03-03T00:52:40.681Z,4.58
2018-03-03T00:55:09.398Z,4.44
2018-03-03T00:57:38.286Z,4.63
2018-03-03T01:00:06.978Z,4.55
2018-03-03T01:02:35.602Z,4.42
2018-03-03T01:05:05.270Z,4.89
2018-03-03T01:07:33.957Z,5.46
2018-03-03T01:10:02.580Z,4.76
2018-03-03T01:12:32.249Z,5.17
2018-03-03T01:15:00.916Z,5.12
2018-03-03T01:17:29.621Z,4.89
2018-03-03T01:19:58.404Z,4.40
2018-03-03T01:22:27.091Z,3.75
2018-03-03T01:24:55.736Z,3.58
2018-03-03T01:27:25.287Z,4.22
2018-03-03T01:29:53.923Z,4.03
2018-03-03T01:32:22.656Z,4.59
2018-03-03T01:34:51.440Z,5.21
2018-03-03T01:37:20.126Z,4.66
2018-03-03T01:39:48.712Z,4.23
2018-03-03T01:42:17.607Z,4.24
2018-03-03T01:44:46.248Z,4.21
2018-03-03T01:47:14.978Z,4.46
2018-03-03T01:49:43.861Z,4.76
2018-03-03T01:52:12.504Z,4.71
2018-03-03T01:54:41.232Z,5.53
2018-03-03T01:57:09.920Z,5.77
2018-03-03T01:59:38.605Z,4.95
2018-03-03T02:02:07.499Z,4.70
2018-03-03T02:04:36.282Z,5.16
2018-03-03T02:07:04.969Z,6.00
2018-03-03T02:09:33.605Z,5.40
2018-03-03T02:12:03.163Z,5.06
2018-03-03T02:14:31.788Z,5.37
2018-03-03T02:17:01.247Z,5.68
2018-03-03T02:19:29.995Z,4.62
2018-03-03T02:21:58.727Z,5.39
2018-03-03T02:24:27.414Z,5.56
2018-03-03T02:26:56.199Z,5.53
2018-03-03T02:29:24.884Z,4.54
2018-03-03T02:31:53.570Z,5.16
2018-03-03T02:34:22.428Z,4.89
2018-03-03T02:36:51.150Z,3.65
2018-03-03T02:39:19.836Z,3.49
2018-03-03T02:41:48.513Z,3.36
2018-03-03T02:44:17.207Z,3.68
2018-03-03T02:46:45.892Z,2.85
2018-03-03T02:49:14.677Z,3.77
2018-03-03T02:51:43.462Z,3.40
2018-03-03T02:54:12.147Z,3.33
2018-03-03T02:56:40.885Z,3.65
2018-03-03T02:59:10.347Z,4.17
2018-03-03T03:01:38.919Z,4.42
2018-03-03T03:04:07.813Z,4.91
2018-03-03T03:06:36.459Z,4.49
2018-03-03T03:09:05.202Z,4.43
2018-03-03T03:11:34.144Z,5.23
2018-03-03T03:14:02.861Z,5.26
2018-03-03T03:16:31.505Z,5.37
2018-03-03T03:19:00.233Z,5.13
2018-03-03T03:21:28.864Z,4.68
2018-03-03T03:23:58.328Z,4.99
2018-03-03T03:26:27.051Z,5.53
2018-03-03T03:28:56.413Z,5.28
2018-03-03T03:31:24.958Z,4.80
2018-03-03T03:33:53.727Z,4.82
2018-03-03T03:36:23.184Z,4.65
2018-03-03T03:38:51.813Z,4.69
2018-03-03T03:41:21.379Z,4.67
2018-03-03T03:43:50.161Z,4.31
2018-03-03T03:46:18.848Z,4.43
2018-03-03T03:48:47.841Z,4.77
2018-03-03T03:51:16.477Z,4.53
2018-03-03T03:53:45.940Z,4.62
2018-03-03T03:56:14.821Z,4.62
2018-03-03T03:58:43.505Z,5.37
2018-03-03T04:01:12.147Z,5.23
2018-03-03T04:03:40.877Z,5.16
2018-03-03T04:06:09.507Z,4.50
2018-03-03T04:08:38.972Z,4.60
2018-03-03T04:11:08.064Z,4.37
2018-03-03T04:13:36.810Z,4.57
2018-03-03T04:16:05.534Z,3.77
2018-03-03T04:18:34.269Z,3.10
2018-03-03T04:21:03.729Z,3.97
2018-03-03T04:23:32.316Z,4.30
2018-03-03T04:26:01.052Z,4.12
2018-03-03T04:28:30.502Z,3.76
2018-03-03T04:30:59.158Z,4.49
2018-03-03T04:33:28.177Z,4.50
2018-03-03T04:35:56.968Z,4.46
2018-03-03T04:38:25.658Z,4.81
2018-03-03T04:40:54.404Z,5.05
2018-03-03T04:43:23.129Z,5.14
2018-03-03T04:45:51.814Z,5.29
2018-03-03T04:48:20.598Z,4.47
2018-03-03T04:50:49.225Z,5.57
2018-03-03T04:53:18.637Z,4.88
2018-03-03T04:55:49.322Z,5.86
2018-03-03T04:58:18.864Z,5.41
2018-03-03T05:00:47.794Z,6.55
2018-03-03T05:03:18.080Z,5.85
2018-03-03T05:06:05.303Z,6.14
2018-03-03T05:08:38.532Z,6.78
2018-03-03T05:11:07.317Z,6.84
2018-03-03T05:13:36.830Z,6.21
2018-03-03T05:16:11.249Z,6.09
2018-03-03T05:18:45.465Z,6.52
2018-03-03T05:24:19.897Z,6.15
2018-03-03T05:26:54.016Z,6.56
2018-03-03T05:29:28.230Z,6.71
2018-03-03T05:32:03.125Z,6.72
2018-03-03T05:34:32.046Z,7.30
2018-03-03T05:37:20.710Z,7.36
2018-03-03T05:43:00.388Z,7.66
2018-03-03T05:45:30.594Z,8.10
2018-03-03T05:51:23.433Z,8.12
2018-03-03T05:53:57.642Z,8.03
2018-03-03T05:59:34.854Z,9.34
2018-03-03T06:02:08.967Z,9.22
2018-03-03T06:04:38.575Z,9.17
2018-03-03T06:10:16.035Z,9.82
2018-03-03T06:12:44.667Z,9.84
2018-03-03T06:15:13.354Z,9.83
2018-03-03T06:17:42.138Z,9.03
2018-03-03T06:20:10.823Z,8.30
2018-03-03T06:22:39.619Z,9.88
2018-03-03T06:25:08.296Z,9.21
2018-03-03T06:27:36.990Z,9.34
2018-03-03T06:30:05.623Z,9.21
2018-03-03T06:32:35.481Z,7.79
2018-03-03T06:35:04.137Z,8.60
2018-03-03T06:37:32.884Z,8.33
2018-03-03T06:40:01.648Z,8.99
2018-03-03T06:42:30.195Z,9.21
2018-03-03T06:44:58.910Z,8.12
2018-03-03T06:47:27.648Z,8.50
2018-03-03T06:49:57.104Z,9.36
2018-03-03T06:52:25.791Z,10.56
2018-03-03T06:54:54.829Z,8.78
2018-03-03T06:57:24.291Z,7.85
2018-03-03T06:59:52.935Z,7.60
2018-03-03T07:02:21.662Z,7.37
2018-03-03T07:04:50.450Z,6.96
2018-03-03T07:07:19.231Z,7.62
2018-03-03T07:09:47.917Z,8.15
2018-03-03T07:12:16.605Z,9.51
2018-03-03T07:14:50.721Z,10.27
2018-03-03T07:17:19.463Z,11.14
2018-03-03T07:19:48.191Z,11.56
2018-03-03T07:22:17.173Z,10.26
2018-03-03T07:24:45.869Z,11.14
2018-03-03T07:27:14.557Z,13.27
2018-03-03T07:29:43.376Z,10.55
2018-03-03T07:32:12.073Z,9.95
2018-03-03T07:34:41.486Z,11.29
2018-03-03T07:37:10.735Z,11.48
2018-03-03T07:39:39.422Z,12.72
2018-03-03T07:42:08.064Z,14.02
2018-03-03T07:44:36.864Z,14.13
2018-03-03T07:47:05.577Z,16.34
2018-03-03T07:49:34.372Z,16.89
2018-03-03T07:52:03.257Z,17.26
2018-03-03T07:54:31.942Z,17.09
2018-03-03T07:57:12.608Z,16.39
2018-03-03T07:59:41.294Z,17.44
2018-03-03T08:02:09.981Z,15.44
2018-03-03T08:04:38.973Z,13.94
2018-03-03T08:07:07.717Z,13.60
2018-03-03T08:09:37.266Z,13.89
2018-03-03T08:12:05.953Z,16.76
2018-03-03T08:14:34.694Z,17.87
2018-03-03T08:17:04.145Z,16.88
2018-03-03T08:19:33.082Z,16.75
2018-03-03T08:22:02.501Z,17.97
2018-03-03T08:24:31.224Z,17.28
2018-03-03T08:27:00.016Z,16.77
2018-03-03T08:29:28.612Z,18.43
2018-03-03T08:31:57.182Z,18.27
2018-03-03T08:34:27.472Z,17.96
2018-03-03T08:36:56.267Z,18.30
2018-03-03T08:39:24.843Z,18.52
2018-03-03T08:41:53.995Z,19.22
2018-03-03T08:44:23.412Z,19.96
2018-03-03T08:46:52.129Z,18.21
2018-03-03T08:49:20.817Z,17.29
2018-03-03T08:51:49.372Z,17.78
2018-03-03T08:54:17.929Z,16.13
2018-03-03T08:56:47.700Z,14.43
2018-03-03T08:59:16.276Z,16.40
2018-03-03T09:01:44.968Z,17.18
2018-03-03T09:04:13.706Z,17.38
2018-03-03T09:06:42.256Z,16.58
2018-03-03T09:09:11.013Z,18.52
2018-03-03T09:11:39.760Z,17.97
2018-03-03T09:14:08.497Z,14.98
2018-03-03T09:16:37.073Z,18.19
2018-03-03T09:19:06.075Z,17.32
2018-03-03T09:21:34.764Z,17.18
2018-03-03T09:24:03.447Z,16.48
2018-03-03T09:26:32.234Z,20.02
2018-03-03T09:29:00.919Z,18.53
2018-03-03T09:31:29.604Z,18.99
2018-03-03T09:33:58.444Z,17.87
2018-03-03T09:36:27.996Z,18.02
2018-03-03T09:38:56.708Z,16.34
2018-03-03T09:41:25.477Z,18.77
2018-03-03T09:43:54.198Z,20.54
2018-03-03T09:46:22.784Z,21.71
2018-03-03T09:48:51.530Z,21.02
2018-03-03T09:51:20.256Z,19.36
2018-03-03T09:53:48.891Z,18.76
2018-03-03T09:56:18.408Z,16.30
2018-03-03T09:58:47.136Z,17.17
2018-03-03T10:01:15.825Z,17.61
2018-03-03T10:03:44.509Z,18.96
2018-03-03T10:06:13.094Z,20.10
2018-03-03T10:08:41.782Z,20.87
2018-03-03T10:11:10.760Z,19.83
2018-03-03T10:13:39.463Z,18.76
2018-03-03T10:16:08.206Z,18.26
2018-03-03T10:18:37.236Z,16.73
2018-03-03T10:21:06.021Z,17.29
2018-03-03T10:23:34.711Z,20.69
2018-03-03T10:26:03.501Z,20.12
2018-03-03T10:28:32.189Z,21.49
2018-03-03T10:31:00.973Z,20.05
2018-03-03T10:33:29.658Z,20.41
2018-03-03T10:35:58.344Z,19.99
2018-03-03T10:38:26.966Z,20.31
2018-03-03T10:40:56.430Z,20.52
2018-03-03T10:43:25.115Z,19.90
2018-03-03T10:45:53.748Z,20.21
2018-03-03T10:48:23.363Z,18.91
2018-03-03T10:50:52.056Z,20.93
2018-03-03T10:53:20.780Z,22.65
2018-03-03T10:55:49.916Z,23.70
2018-03-03T10:58:19.379Z,21.44
2018-03-03T11:00:50.921Z,19.40
2018-03-03T11:03:19.626Z,19.66
2018-03-03T11:05:48.312Z,19.66
2018-03-03T11:08:17.157Z,22.39
2018-03-03T11:10:45.882Z,22.70
2018-03-03T11:13:14.471Z,24.07
2018-03-03T11:15:43.254Z,23.85
2018-03-03T11:18:11.939Z,24.04
2018-03-03T11:20:40.573Z,24.34
2018-03-03T11:23:10.041Z,23.30
2018-03-03T11:25:39.353Z,24.88
2018-03-03T11:28:08.027Z,24.34
2018-03-03T11:30:36.807Z,21.68
2018-03-03T11:33:05.538Z,19.80
2018-03-03T11:35:35.002Z,20.24
2018-03-03T11:38:03.850Z,20.36
2018-03-03T11:40:33.131Z,19.75
2018-03-03T11:43:01.215Z,21.27
2018-03-03T11:45:30.103Z,22.81
2018-03-03T11:47:58.834Z,24.98
2018-03-03T11:50:27.521Z,24.61
2018-03-03T11:52:56.549Z,22.34
2018-03-03T11:55:26.022Z,20.06
2018-03-03T11:57:54.596Z,22.11
2018-03-03T12:00:23.285Z,22.01
2018-03-03T12:02:51.969Z,22.81
2018-03-03T12:05:20.604Z,23.66
2018-03-03T12:07:49.293Z,23.29
2018-03-03T12:10:18.027Z,23.28
2018-03-03T12:12:46.712Z,23.60
2018-03-03T12:15:15.704Z,23.55
2018-03-03T12:17:44.391Z,21.34
2018-03-03T12:20:12.977Z,17.87
2018-03-03T12:22:41.868Z,18.38
2018-03-03T12:25:10.562Z,21.28
2018-03-03T12:27:39.287Z,23.48
2018-03-03T12:30:09.050Z,22.02
2018-03-03T12:32:37.734Z,17.76
2018-03-03T12:35:06.374Z,19.78
2018-03-03T12:37:35.259Z,19.43
2018-03-03T12:40:04.677Z,17.47
2018-03-03T12:42:33.400Z,17.32
2018-03-03T12:45:02.283Z,19.14
2018-03-03T12:47:30.995Z,20.76
2018-03-03T12:50:00.329Z,18.32
2018-03-03T12:52:29.792Z,18.24
2018-03-03T12:54:58.354Z,17.87
2018-03-03T12:57:27.051Z,20.07
2018-03-03T12:59:56.718Z,20.12
2018-03-03T13:02:26.167Z,20.91
2018-03-03T13:04:54.744Z,21.46
2018-03-03T13:07:23.637Z,21.94
2018-03-03T13:09:52.323Z,21.40
2018-03-03T13:12:21.008Z,22.03
2018-03-03T13:14:49.904Z,20.79
2018-03-03T13:17:18.453Z,23.57
2018-03-03T13:19:47.112Z,23.98
2018-03-03T13:22:16.589Z,23.23
2018-03-03T13:24:45.358Z,22.99
2018-03-03T13:27:14.046Z,23.61
2018-03-03T13:29:42.785Z,23.87
2018-03-03T13:32:12.256Z,23.93
2018-03-03T13:34:40.928Z,22.81
2018-03-03T13:37:10.893Z,22.63
2018-03-03T13:39:39.624Z,23.76
2018-03-03T13:42:08.218Z,23.36
2018-03-03T13:44:36.995Z,23.37
2018-03-03T13:47:05.660Z,23.32
2018-03-03T13:49:34.331Z,23.10
2018-03-03T13:52:03.274Z,23.88
2018-03-03T13:54:32.739Z,24.68
2018-03-03T13:57:01.413Z,23.52
2018-03-03T13:59:30.482Z,23.68
2018-03-03T14:01:59.202Z,23.02
2018-03-03T14:04:27.996Z,24.17
2018-03-03T14:06:56.684Z,23.64
2018-03-03T14:09:25.372Z,24.06
2018-03-03T14:11:53.947Z,24.40
2018-03-03T14:14:22.687Z,24.59
2018-03-03T14:16:52.160Z,24.88
2018-03-03T14:19:20.925Z,24.27
2018-03-03T14:21:49.719Z,24.97
2018-03-03T14:24:18.405Z,24.42
2018-03-03T14:26:47.028Z,23.91
2018-03-03T14:29:16.549Z,23.93
2018-03-03T14:31:45.274Z,23.24
2018-03-03T14:34:14.169Z,23.49
2018-03-03T14:36:43.105Z,23.56
2018-03-03T14:39:12.432Z,24.02
2018-03-03T14:41:41.091Z,21.83
2018-03-03T14:44:10.809Z,21.83
2018-03-03T14:46:39.540Z,21.69
2018-03-03T14:49:08.132Z,21.83
2018-03-03T14:51:37.120Z,20.30
2018-03-03T14:54:06.578Z,20.91
2018-03-03T14:56:36.087Z,21.01
2018-03-03T14:59:05.833Z,20.94
2018-03-03T15:01:34.530Z,20.81
2018-03-03T15:04:03.085Z,20.09
2018-03-03T15:06:31.899Z,19.16
2018-03-03T15:09:00.646Z,18.68
2018-03-03T15:11:30.084Z,18.86
2018-03-03T15:13:58.877Z,19.82
2018-03-03T15:16:27.564Z,20.24
2018-03-03T15:18:56.209Z,20.41
2018-03-03T15:21:24.948Z,20.04
2018-03-03T15:23:54.434Z,19.84
2018-03-03T15:26:23.068Z,19.70
2018-03-03T15:28:52.634Z,19.20
2018-03-03T15:31:21.413Z,18.77
2018-03-03T15:33:51.613Z,17.21
2018-03-03T15:36:20.366Z,16.55
2018-03-03T15:38:49.087Z,15.50
2018-03-03T15:41:17.751Z,16.17
2018-03-03T15:43:46.554Z,16.43
2018-03-03T15:46:15.187Z,16.50
2018-03-03T15:48:44.650Z,16.53
2018-03-03T15:51:13.841Z,16.40
2018-03-03T15:53:42.528Z,16.04
2018-03-03T15:56:11.212Z,16.00
2018-03-03T15:58:40.108Z,15.39
2018-03-03T16:01:08.745Z,14.62
2018-03-03T16:03:37.478Z,14.34
2018-03-03T16:06:06.182Z,14.95
2018-03-03T16:08:34.948Z,14.85
2018-03-03T16:11:03.635Z,14.66
2018-03-03T16:13:32.585Z,14.66
2018-03-03T16:16:01.313Z,14.28
2018-03-03T16:18:29.948Z,14.05
2018-03-03T16:20:59.413Z,14.08
2018-03-03T16:23:27.978Z,14.01
2018-03-03T16:25:56.574Z,13.69
2018-03-03T16:28:25.643Z,13.56
2018-03-03T16:30:54.349Z,13.70
2018-03-03T16:33:23.036Z,13.33
2018-03-03T16:35:51.831Z,13.83
2018-03-03T16:38:20.616Z,13.66
2018-03-03T16:40:49.197Z,13.51
2018-03-03T16:43:18.195Z,13.35
2018-03-03T16:45:46.840Z,13.59
2018-03-03T16:48:15.567Z,13.46
2018-03-03T16:50:44.561Z,13.17
2018-03-03T16:53:13.316Z,13.20
2018-03-03T16:55:41.931Z,13.00
2018-03-03T16:58:10.633Z,13.28
2018-03-03T17:00:39.303Z,13.79
2018-03-03T17:03:07.992Z,13.55
2018-03-03T17:05:37.163Z,13.09
2018-03-03T17:08:05.870Z,13.05
2018-03-03T17:10:34.821Z,13.28
2018-03-03T17:13:03.552Z,13.22
2018-03-03T17:15:32.137Z,13.02
2018-03-03T17:18:00.823Z,13.55
2018-03-03T17:20:29.511Z,13.31
2018-03-03T17:22:58.235Z,13.42
2018-03-03T17:25:27.681Z,13.11
2018-03-03T17:27:56.860Z,12.90
2018-03-03T17:30:25.515Z,12.95
2018-03-03T17:32:54.183Z,12.94
2018-03-03T17:35:22.876Z,12.77
2018-03-03T17:37:51.609Z,12.65
2018-03-03T17:40:20.196Z,12.38
2018-03-03T17:42:48.929Z,12.56
2018-03-03T17:45:17.661Z,12.64
2018-03-03T17:47:46.315Z,12.61
2018-03-03T17:50:15.033Z,12.60
2018-03-03T17:52:43.623Z,12.80
2018-03-03T17:55:12.307Z,12.65
2018-03-03T17:57:41.458Z,12.29
2018-03-03T18:00:10.906Z,12.29
2018-03-03T18:02:39.593Z,12.37
2018-03-03T18:05:08.341Z,12.27
2018-03-03T18:07:37.065Z,12.33
2018-03-03T18:10:05.797Z,12.25
2018-03-03T18:12:36.180Z,12.48
2018-03-03T18:15:04.912Z,12.25
2018-03-03T18:17:34.326Z,12.17
2018-03-03T18:20:03.159Z,12.01
2018-03-03T18:22:31.853Z,12.18
2018-03-03T18:25:00.583Z,12.59
2018-03-03T18:27:29.622Z,12.61
2018-03-03T18:29:58.338Z,12.31
2018-03-03T18:32:27.915Z,12.08
2018-03-03T18:34:56.854Z,12.17
2018-03-03T18:37:26.317Z,12.37
2018-03-03T18:39:54.896Z,12.25
2018-03-03T18:42:23.630Z,12.13
2018-03-03T18:44:53.090Z,12.33
2018-03-03T18:47:21.676Z,12.32
2018-03-03T18:49:50.356Z,12.61
2018-03-03T18:52:19.000Z,12.43
2018-03-03T18:54:47.739Z,12.53
2018-03-03T18:57:16.615Z,12.13
2018-03-03T18:59:45.258Z,12.22
2018-03-03T19:02:13.988Z,12.08
2018-03-03T19:04:42.783Z,12.27
2018-03-03T19:07:11.812Z,12.24
2018-03-03T19:09:41.230Z,12.43
2018-03-03T19:12:10.198Z,12.47
2018-03-03T19:14:38.922Z,12.40
2018-03-03T19:17:07.559Z,12.22
2018-03-03T19:19:37.521Z,12.26
2018-03-03T19:22:06.210Z,12.45
2018-03-03T19:24:34.863Z,12.24
2018-03-03T19:27:03.952Z,12.33
2018-03-03T19:29:32.619Z,11.62
2018-03-03T19:32:02.082Z,11.48
2018-03-03T19:34:31.173Z,10.46
2018-03-03T19:36:59.827Z,10.75
2018-03-03T19:39:28.545Z,10.84
2018-03-03T19:41:57.161Z,11.21
2018-03-03T19:44:26.627Z,11.13
2018-03-03T19:46:55.321Z,11.53
2018-03-03T19:49:24.167Z,11.06
2018-03-03T19:51:52.895Z,11.48
2018-03-03T19:54:21.526Z,11.22
2018-03-03T19:56:50.412Z,11.13
2018-03-03T19:59:18.968Z,11.16
2018-03-03T20:01:48.125Z,11.27
2018-03-03T20:04:17.102Z,11.35
2018-03-03T20:06:45.766Z,11.85
2018-03-03T20:09:14.379Z,12.03
2018-03-03T20:11:43.500Z,12.40
2018-03-03T20:14:12.964Z,12.59
2018-03-03T20:16:42.389Z,12.73
2018-03-03T20:19:11.305Z,12.79
2018-03-03T20:21:40.009Z,13.00
2018-03-03T20:24:08.697Z,12.64
2018-03-03T20:26:37.482Z,12.30
2018-03-03T20:29:06.127Z,12.12
2018-03-03T20:31:34.851Z,12.03
2018-03-03T20:34:03.646Z,12.13
2018-03-03T20:36:32.222Z,12.27
2018-03-03T20:39:00.810Z,12.45
2018-03-03T20:41:29.740Z,12.52
2018-03-03T20:43:59.202Z,12.86
2018-03-03T20:46:27.789Z,11.52
2018-03-03T20:48:56.845Z,11.76
2018-03-03T20:51:25.567Z,12.00
2018-03-03T20:53:54.363Z,12.21
2018-03-03T20:56:23.200Z,11.62
2018-03-03T20:58:51.931Z,10.71
2018-03-03T21:01:20.980Z,10.53
2018-03-03T21:03:50.433Z,10.59
2018-03-03T21:06:19.013Z,11.19
2018-03-03T21:08:47.658Z,11.55
2018-03-03T21:11:16.633Z,11.57
2018-03-03T21:13:46.098Z,11.39
2018-03-03T21:16:14.784Z,11.40
2018-03-03T21:18:43.834Z,11.69
2018-03-03T21:21:12.561Z,11.87
2018-03-03T21:23:41.195Z,11.50
2018-03-03T21:26:10.663Z,11.84
2018-03-03T21:28:39.332Z,11.07
2018-03-03T21:31:08.028Z,9.83
2018-03-03T21:33:36.620Z,9.94
2018-03-03T21:36:05.293Z,10.64
2018-03-03T21:38:34.086Z,10.06
2018-03-03T21:41:02.819Z,10.72
2018-03-03T21:43:32.270Z,10.99
2018-03-03T21:46:00.960Z,10.75
2018-03-03T21:48:29.694Z,10.99
2018-03-03T21:50:59.151Z,10.94
2018-03-03T21:53:28.659Z,10.94
2018-03-03T21:55:57.477Z,11.08
2018-03-03T21:58:26.841Z,11.39
2018-03-03T22:00:55.487Z,11.48
2018-03-03T22:03:24.404Z,11.40
2018-03-03T22:05:53.110Z,11.96
2018-03-03T22:08:21.899Z,11.58
2018-03-03T22:10:50.628Z,12.18
2018-03-03T22:13:20.088Z,12.42
2018-03-03T22:15:48.775Z,12.50
2018-03-03T22:18:17.667Z,12.44
2018-03-03T22:20:46.354Z,12.15
2018-03-03T22:23:14.992Z,12.05
2018-03-03T22:25:43.888Z,12.30
2018-03-03T22:28:12.432Z,12.17
2018-03-03T22:30:41.096Z,12.23
2018-03-03T22:33:09.943Z,11.71
2018-03-03T22:35:38.666Z,12.23
2018-03-03T22:38:07.352Z,11.84
2018-03-03T22:40:36.198Z,11.86
2018-03-03T22:43:05.646Z,11.72
2018-03-03T22:45:34.331Z,9.45
2018-03-03T22:48:03.434Z,10.22
2018-03-03T22:50:32.118Z,10.31
2018-03-03T22:53:00.756Z,10.96
2018-03-03T22:55:30.902Z,11.33
2018-03-03T22:57:59.571Z,11.19
2018-03-03T23:00:28.293Z,11.10
2018-03-03T23:02:57.089Z,10.15
2018-03-03T23:05:25.770Z,9.73
2018-03-03T23:07:54.346Z,10.50
2018-03-03T23:10:23.080Z,10.82
2018-03-03T23:12:52.542Z,10.37
2018-03-03T23:15:21.230Z,10.84
2018-03-03T23:17:50.013Z,10.77
2018-03-03T23:20:18.655Z,10.68
2018-03-03T23:22:47.393Z,10.89
2018-03-03T23:25:15.984Z,10.44
2018-03-03T23:27:44.657Z,10.51
2018-03-03T23:30:13.343Z,10.45
2018-03-03T23:32:42.393Z,9.97
2018-03-03T23:35:11.121Z,10.05
2018-03-03T23:37:39.753Z,10.36
2018-03-03T23:40:09.223Z,10.21
2018-03-03T23:42:37.892Z,10.87
2018-03-03T23:45:06.587Z,11.00
2018-03-03T23:47:35.725Z,10.67
2018-03-03T23:50:05.139Z,10.09
2018-03-03T23:52:34.587Z,9.91
2018-03-03T23:55:03.272Z,9.89
2018-03-03T23:57:31.959Z,10.58
